Mortons Gap, Kentucky
Current Conditions -  °F | °C
As of 6:15 PM on Wednesday 28 Jan 2015 (Local Time) from K2I0 Reporting Station
Clear Clear  
Wind Chill: 40°   Ceiling: Unl
Heat Index: 43°   Visibility: 10mi
Dew Point: 25°   Wind: 5mph
Humidity: 50%   Direction: 150°SSE
Pressure: 30.16"   Gusts: NA
Location:  37.24°N, 87.48°W
Report Text: K2I0 290015Z AUTO 15004KT 10SM CLR 06/M04 A3016 RMK AO2 T00601037
Loading
Personal Weather Stations






























Interactive Weather Map New forecast layout! Learn more

10-Day Weather Forecast

Advertisements
Track Severe Weather on mobile